Terminal Aerodrome Forecast
Issued by NWS La Crosse, WI

Home | Current Version | Previous Version | Text Only | Print | Product List | Glossary On
Versions: 1 2 3 4 5 6 7 8 9 10 11 12 13 14 15 16 17 18 19 20 21 22 23 24 25 26 27 28 29 30 31 32 33 34 35 36 37 38
000
FTUS43 KARX 041120
TAFRST
TAF
KRST 041120Z 0412/0512 15014KT 1SM -SN OVC007
      TEMPO 0412/0416 3/4SM -SN BR OVC004
     FM041700 22015KT 4SM BR OVC006
     FM041900 21009KT P6SM OVC008
     FM050300 24009KT P6SM SCT015
     FM051000 19008KT P6SM BKN130=

USA.gov is the U.S. government's official web portal to all federal, state and local government web resources and services.